createdAt,value
2022-08-17T00:00:20.755Z,55
2022-08-17T00:01:26.862Z,55
2022-08-17T00:02:32.978Z,55
2022-08-17T00:03:39.095Z,55
2022-08-17T00:04:45.214Z,55
2022-08-17T00:05:51.325Z,55
2022-08-17T00:06:57.437Z,55
2022-08-17T00:08:03.552Z,55
2022-08-17T00:09:08.687Z,55
2022-08-17T00:10:13.813Z,55
2022-08-17T00:11:18.944Z,55
2022-08-17T00:12:24.086Z,55
2022-08-17T00:13:30.197Z,55
2022-08-17T00:14:36.303Z,55
2022-08-17T00:15:42.427Z,55
2022-08-17T00:16:48.537Z,55
2022-08-17T00:17:54.652Z,55
2022-08-17T00:19:00.772Z,55
2022-08-17T00:20:06.876Z,55
2022-08-17T00:21:12.989Z,55
2022-08-17T00:22:19.105Z,55
2022-08-17T00:23:25.216Z,55
2022-08-17T00:24:31.341Z,55
2022-08-17T00:25:37.450Z,55
2022-08-17T00:26:42.580Z,55
2022-08-17T00:27:48.688Z,55
2022-08-17T00:28:54.806Z,55
2022-08-17T00:30:00.921Z,55
2022-08-17T00:31:07.029Z,55
2022-08-17T00:32:13.145Z,55
2022-08-17T00:33:19.261Z,55
2022-08-17T00:34:24.399Z,55
2022-08-17T00:35:29.521Z,55
2022-08-17T00:36:34.663Z,55
2022-08-17T00:37:39.786Z,55
2022-08-17T00:38:44.923Z,55
2022-08-17T00:39:50.054Z,55
2022-08-17T00:40:55.185Z,55
2022-08-17T00:42:00.324Z,55
2022-08-17T00:43:06.431Z,55
2022-08-17T00:45:18.662Z,55
2022-08-17T00:46:24.777Z,55
2022-08-17T00:47:30.887Z,55
2022-08-17T00:48:37.002Z,55
2022-08-17T00:49:43.119Z,55
2022-08-17T00:50:49.231Z,55
2022-08-17T00:51:55.337Z,55
2022-08-17T00:53:01.460Z,55
2022-08-17T00:54:07.575Z,55
2022-08-17T00:55:13.689Z,55
2022-08-17T00:56:18.816Z,55
2022-08-17T00:57:24.936Z,55
2022-08-17T00:58:31.053Z,55
2022-08-17T00:59:37.165Z,55
2022-08-17T01:00:43.269Z,55
2022-08-17T01:01:49.386Z,55
2022-08-17T01:02:55.501Z,55
2022-08-17T01:04:01.616Z,55
2022-08-17T01:05:06.756Z,55
2022-08-17T01:06:11.880Z,55
2022-08-17T01:07:17.019Z,55
2022-08-17T01:08:22.150Z,55
2022-08-17T01:09:28.261Z,55
2022-08-17T01:10:34.374Z,55
2022-08-17T01:11:40.487Z,55
2022-08-17T01:12:46.608Z,55
2022-08-17T01:13:52.717Z,55
2022-08-17T01:14:58.831Z,55
2022-08-17T01:16:04.955Z,55
2022-08-17T01:17:11.068Z,55
2022-08-17T01:18:17.165Z,55
2022-08-17T01:19:23.289Z,55
2022-08-17T01:20:29.401Z,55
2022-08-17T01:21:35.517Z,55
2022-08-17T01:23:46.752Z,55
2022-08-17T01:24:52.867Z,55
2022-08-17T01:25:58.988Z,55
2022-08-17T01:27:05.102Z,55
2022-08-17T01:29:17.328Z,55
2022-08-17T01:30:22.460Z,55
2022-08-17T01:31:27.598Z,55
2022-08-17T01:32:33.705Z,55
2022-08-17T01:33:39.834Z,55
2022-08-17T01:34:45.942Z,55
2022-08-17T01:35:52.055Z,55
2022-08-17T01:36:58.161Z,55
2022-08-17T01:38:04.301Z,55
2022-08-17T01:39:10.393Z,55
2022-08-17T01:40:16.509Z,55
2022-08-17T01:41:22.622Z,55
2022-08-17T01:42:27.760Z,55
2022-08-17T01:43:32.892Z,55
2022-08-17T01:44:39.002Z,55
2022-08-17T01:45:45.119Z,55
2022-08-17T01:46:51.224Z,55
2022-08-17T01:47:57.354Z,55
2022-08-17T01:49:03.455Z,55
2022-08-17T01:50:09.576Z,55
2022-08-17T01:51:15.685Z,55
2022-08-17T01:52:21.802Z,55
2022-08-17T01:53:27.907Z,55
2022-08-17T01:54:34.022Z,55
2022-08-17T01:55:40.135Z,55
2022-08-17T01:56:46.261Z,55
2022-08-17T01:57:51.391Z,55
2022-08-17T01:58:57.502Z,55
2022-08-17T02:01:09.723Z,55
2022-08-17T02:02:15.839Z,55
2022-08-17T02:03:21.955Z,55
2022-08-17T02:04:28.071Z,55
2022-08-17T02:05:34.185Z,55
2022-08-17T02:06:39.322Z,55
2022-08-17T02:07:44.460Z,55
2022-08-17T02:08:49.585Z,55
2022-08-17T02:09:54.735Z,55
2022-08-17T02:10:59.849Z,55
2022-08-17T02:12:05.965Z,55
2022-08-17T02:13:12.081Z,55
2022-08-17T02:14:18.195Z,55
2022-08-17T02:15:24.311Z,55
2022-08-17T02:16:30.427Z,55
2022-08-17T02:17:36.537Z,55
2022-08-17T02:18:42.646Z,55
2022-08-17T02:19:48.765Z,55
2022-08-17T02:20:54.877Z,55
2022-08-17T02:22:00.994Z,55
2022-08-17T02:23:07.105Z,55
2022-08-17T02:24:13.229Z,55
2022-08-17T02:25:18.351Z,55
2022-08-17T02:26:24.465Z,55
2022-08-17T02:27:30.576Z,55
2022-08-17T02:28:36.694Z,55
2022-08-17T02:29:42.826Z,55
2022-08-17T02:30:48.920Z,55
2022-08-17T02:31:54.062Z,55
2022-08-17T02:34:05.299Z,55
2022-08-17T02:35:10.436Z,55
2022-08-17T02:36:15.579Z,55
2022-08-17T02:37:21.681Z,55
2022-08-17T02:38:27.795Z,55
2022-08-17T02:39:33.915Z,55
2022-08-17T02:40:40.027Z,55
2022-08-17T02:41:46.138Z,55
2022-08-17T02:42:52.249Z,55
2022-08-17T02:43:58.365Z,55
2022-08-17T02:45:04.482Z,55
2022-08-17T02:46:10.595Z,55
2022-08-17T02:47:16.719Z,55
2022-08-17T02:48:22.820Z,55
2022-08-17T02:49:28.944Z,55
2022-08-17T02:50:34.067Z,55
2022-08-17T02:51:40.178Z,55
2022-08-17T02:52:46.292Z,55
2022-08-17T02:53:52.411Z,55
2022-08-17T02:54:58.520Z,55
2022-08-17T02:56:04.636Z,55
2022-08-17T02:57:10.757Z,55
2022-08-17T02:58:15.879Z,55
2022-08-17T03:00:27.132Z,55
2022-08-17T03:01:32.267Z,55
2022-08-17T03:02:37.398Z,55
2022-08-17T03:03:43.505Z,55
2022-08-17T03:04:49.627Z,55
2022-08-17T03:05:55.738Z,55
2022-08-17T03:07:01.851Z,55
2022-08-17T03:08:07.968Z,55
2022-08-17T03:09:14.081Z,55
2022-08-17T03:10:20.199Z,55
2022-08-17T03:11:26.309Z,55
2022-08-17T03:12:32.419Z,55
2022-08-17T03:13:38.540Z,55
2022-08-17T03:14:44.648Z,55
2022-08-17T03:15:50.759Z,55
2022-08-17T03:16:55.891Z,55
2022-08-17T03:18:02.005Z,55
2022-08-17T03:19:08.118Z,55
2022-08-17T03:20:14.232Z,55
2022-08-17T03:21:20.355Z,55
2022-08-17T03:22:26.462Z,55
2022-08-17T03:23:32.579Z,55
2022-08-17T03:24:37.714Z,55
2022-08-17T03:25:42.845Z,55
2022-08-17T03:26:48.955Z,55
2022-08-17T03:27:54.098Z,55
2022-08-17T03:28:59.217Z,55
2022-08-17T03:30:05.353Z,55
2022-08-17T03:31:11.449Z,55
2022-08-17T03:32:17.568Z,55
2022-08-17T03:33:23.676Z,55
2022-08-17T03:34:29.798Z,55
2022-08-17T03:35:35.909Z,55
2022-08-17T03:36:42.029Z,55
2022-08-17T03:37:48.140Z,55
2022-08-17T03:38:54.254Z,55
2022-08-17T03:40:00.374Z,55
2022-08-17T03:41:06.478Z,55
2022-08-17T03:42:12.592Z,55
2022-08-17T03:43:17.725Z,55
2022-08-17T03:44:23.860Z,55
2022-08-17T03:45:29.951Z,55
2022-08-17T03:46:36.063Z,55
2022-08-17T03:47:42.176Z,55
2022-08-17T03:48:48.293Z,55
2022-08-17T03:49:54.443Z,55
2022-08-17T03:50:59.546Z,55
2022-08-17T03:52:04.675Z,55
2022-08-17T03:53:10.793Z,55
2022-08-17T03:54:15.925Z,55
2022-08-17T03:55:21.047Z,55
2022-08-17T03:56:27.168Z,55
2022-08-17T03:57:33.285Z,55
2022-08-17T03:58:39.395Z,55
2022-08-17T03:59:45.503Z,55
2022-08-17T04:00:51.624Z,55
2022-08-17T04:01:57.734Z,55
2022-08-17T04:03:03.856Z,55
2022-08-17T04:04:09.966Z,55
2022-08-17T04:05:16.076Z,55
2022-08-17T04:06:22.189Z,55
2022-08-17T04:07:28.307Z,55
2022-08-17T04:08:34.422Z,55
2022-08-17T04:09:39.554Z,55
2022-08-17T04:10:45.662Z,55
2022-08-17T04:11:51.772Z,55
2022-08-17T04:12:57.887Z,55
2022-08-17T04:14:03.999Z,55
2022-08-17T04:15:10.120Z,55
2022-08-17T04:16:16.232Z,55
2022-08-17T04:17:21.359Z,55
2022-08-17T04:18:26.507Z,55
2022-08-17T04:19:32.632Z,55
2022-08-17T04:20:37.751Z,55
2022-08-17T04:21:42.881Z,55
2022-08-17T04:22:48.988Z,55
2022-08-17T04:23:55.101Z,55
2022-08-17T04:25:01.219Z,55
2022-08-17T04:26:07.329Z,55
2022-08-17T04:27:13.457Z,55
2022-08-17T04:28:19.559Z,55
2022-08-17T04:29:25.686Z,55
2022-08-17T04:30:31.790Z,55
2022-08-17T04:31:37.902Z,55
2022-08-17T04:32:44.015Z,55
2022-08-17T04:33:50.133Z,55
2022-08-17T04:34:56.244Z,55
2022-08-17T04:36:01.378Z,55
2022-08-17T04:37:07.489Z,55
2022-08-17T04:38:13.605Z,55
2022-08-17T04:39:19.717Z,55
2022-08-17T04:40:25.827Z,55
2022-08-17T04:41:31.944Z,55
2022-08-17T04:42:38.062Z,55
2022-08-17T04:43:43.187Z,55
2022-08-17T04:44:48.324Z,55
2022-08-17T04:45:53.457Z,55
2022-08-17T04:46:58.588Z,55
2022-08-17T04:48:04.709Z,55
2022-08-17T04:49:10.820Z,55
2022-08-17T04:50:16.925Z,55
2022-08-17T04:51:23.051Z,55
2022-08-17T04:52:29.157Z,55
2022-08-17T04:53:35.273Z,55
2022-08-17T04:54:41.381Z,55
2022-08-17T04:55:47.508Z,55
2022-08-17T04:56:53.613Z,55
2022-08-17T04:57:59.731Z,55
2022-08-17T04:59:05.844Z,55
2022-08-17T05:00:11.966Z,55
2022-08-17T05:01:17.093Z,55
2022-08-17T05:02:23.200Z,55
2022-08-17T05:03:29.312Z,55
2022-08-17T05:04:35.439Z,55
2022-08-17T05:05:41.547Z,55
2022-08-17T05:06:47.663Z,55
2022-08-17T05:07:53.769Z,55
2022-08-17T05:08:58.905Z,55
2022-08-17T05:10:04.046Z,55
2022-08-17T05:11:09.173Z,55
2022-08-17T05:12:14.302Z,55
2022-08-17T05:13:20.417Z,55
2022-08-17T05:14:26.529Z,55
2022-08-17T05:15:32.643Z,55
2022-08-17T05:16:38.757Z,55
2022-08-17T05:17:44.866Z,55
2022-08-17T05:18:50.990Z,55
2022-08-17T05:19:57.112Z,55
2022-08-17T05:21:03.216Z,55
2022-08-17T05:22:09.329Z,55
2022-08-17T05:23:15.443Z,55
2022-08-17T05:24:21.556Z,55
2022-08-17T05:25:27.673Z,55
2022-08-17T05:26:32.807Z,55
2022-08-17T05:27:38.907Z,55
2022-08-17T05:28:45.031Z,55
2022-08-17T05:29:51.139Z,55
2022-08-17T05:30:57.256Z,55
2022-08-17T05:32:03.367Z,55
2022-08-17T05:33:09.482Z,55
2022-08-17T05:34:14.609Z,55
2022-08-17T05:35:19.752Z,55
2022-08-17T05:36:24.881Z,55
2022-08-17T05:37:30.017Z,55
2022-08-17T05:38:36.127Z,55
2022-08-17T05:39:42.240Z,55
2022-08-17T05:40:48.355Z,55
2022-08-17T05:41:54.466Z,55
2022-08-17T05:43:00.583Z,55
2022-08-17T05:44:06.690Z,55
2022-08-17T05:45:12.812Z,55
2022-08-17T05:46:18.917Z,55
2022-08-17T05:47:25.042Z,55
2022-08-17T05:48:31.151Z,55
2022-08-17T05:49:37.261Z,55
2022-08-17T05:50:43.379Z,55
2022-08-17T05:51:48.520Z,55
2022-08-17T05:52:54.631Z,55
2022-08-17T05:54:00.739Z,55
2022-08-17T05:55:06.862Z,55
2022-08-17T05:56:12.974Z,55
2022-08-17T05:57:19.084Z,55
2022-08-17T05:58:25.193Z,55
2022-08-17T06:00:36.448Z,55
2022-08-17T06:01:41.579Z,55
2022-08-17T06:02:46.715Z,55
2022-08-17T06:03:51.854Z,55
2022-08-17T06:04:56.980Z,55
2022-08-17T06:06:03.087Z,55
2022-08-17T06:07:09.208Z,55
2022-08-17T06:08:15.318Z,55
2022-08-17T06:09:21.426Z,55
2022-08-17T06:10:27.549Z,55
2022-08-17T06:11:33.658Z,55
2022-08-17T06:12:39.777Z,55
2022-08-17T06:13:45.896Z,55
2022-08-17T06:14:52.013Z,55
2022-08-17T06:15:58.115Z,55
2022-08-17T06:17:04.244Z,55
2022-08-17T06:18:10.352Z,55
2022-08-17T06:19:15.478Z,55
2022-08-17T06:20:21.593Z,55
2022-08-17T06:21:27.709Z,55
2022-08-17T06:22:33.824Z,55
2022-08-17T06:23:39.933Z,55
2022-08-17T06:24:46.046Z,55
2022-08-17T06:25:52.158Z,55
2022-08-17T06:26:57.293Z,55
2022-08-17T06:28:02.418Z,55
2022-08-17T06:29:07.567Z,55
2022-08-17T06:30:12.689Z,55
2022-08-17T06:31:18.805Z,55
2022-08-17T06:32:24.919Z,55
2022-08-17T06:33:31.039Z,55
2022-08-17T06:34:37.139Z,55
2022-08-17T06:35:43.254Z,55
2022-08-17T06:36:49.379Z,55
2022-08-17T06:37:55.487Z,55
2022-08-17T06:39:01.600Z,55
2022-08-17T06:40:07.714Z,55
2022-08-17T06:41:13.819Z,55
2022-08-17T06:42:19.944Z,55
2022-08-17T06:43:26.059Z,55
2022-08-17T06:44:31.182Z,55
2022-08-17T06:45:37.300Z,55
2022-08-17T06:46:43.425Z,55
2022-08-17T06:47:49.524Z,55
2022-08-17T06:48:55.637Z,55
2022-08-17T06:50:01.750Z,55
2022-08-17T06:51:07.871Z,55
2022-08-17T06:52:13.007Z,55
2022-08-17T06:53:18.136Z,55
2022-08-17T06:54:23.269Z,55
2022-08-17T06:55:28.401Z,55
2022-08-17T06:56:34.510Z,55
2022-08-17T06:57:40.628Z,55
2022-08-17T06:58:46.747Z,55
2022-08-17T06:59:52.856Z,55
2022-08-17T07:00:58.979Z,55
2022-08-17T07:02:05.094Z,55
2022-08-17T07:03:11.194Z,55
2022-08-17T07:04:17.320Z,55
2022-08-17T07:05:23.425Z,55
2022-08-17T07:06:29.541Z,55
2022-08-17T07:07:35.647Z,55
2022-08-17T07:08:41.776Z,55
2022-08-17T07:09:46.919Z,55
2022-08-17T07:10:53.009Z,55
2022-08-17T07:11:59.131Z,55
2022-08-17T07:13:05.243Z,55
2022-08-17T07:14:11.354Z,55
2022-08-17T07:15:17.469Z,55
2022-08-17T07:16:23.574Z,55
2022-08-17T07:17:28.720Z,55
2022-08-17T07:18:33.857Z,55
2022-08-17T07:19:38.986Z,55
2022-08-17T07:20:44.112Z,55
2022-08-17T07:21:50.232Z,55
2022-08-17T07:22:56.353Z,55
2022-08-17T07:24:02.458Z,55
2022-08-17T07:25:08.566Z,55
2022-08-17T07:26:14.685Z,55
2022-08-17T07:27:20.792Z,55
2022-08-17T07:28:26.905Z,55
2022-08-17T07:29:33.017Z,55
2022-08-17T07:30:39.129Z,55
2022-08-17T07:31:45.258Z,55
2022-08-17T07:32:51.362Z,55
2022-08-17T07:33:57.484Z,55
2022-08-17T07:35:02.614Z,55
2022-08-17T07:36:08.716Z,55
2022-08-17T07:37:14.840Z,55
2022-08-17T07:38:20.955Z,55
2022-08-17T07:39:27.062Z,55
2022-08-17T07:41:39.291Z,55
2022-08-17T07:42:45.407Z,55
2022-08-17T07:43:50.548Z,55
2022-08-17T07:44:55.665Z,55
2022-08-17T07:46:00.806Z,55
2022-08-17T07:47:05.949Z,55
2022-08-17T07:48:12.065Z,55
2022-08-17T07:49:18.165Z,55
2022-08-17T07:50:24.282Z,55
2022-08-17T07:51:30.396Z,55
2022-08-17T07:52:36.512Z,55
2022-08-17T07:53:42.620Z,55
2022-08-17T07:54:48.734Z,55
2022-08-17T07:55:54.849Z,55
2022-08-17T07:57:00.964Z,55
2022-08-17T07:58:07.076Z,55
2022-08-17T07:59:13.194Z,55
2022-08-17T08:00:19.303Z,55
2022-08-17T08:01:24.435Z,55
2022-08-17T08:02:30.550Z,55
2022-08-17T08:03:36.663Z,55
2022-08-17T08:04:42.772Z,55
2022-08-17T08:05:48.886Z,55
2022-08-17T08:06:55.015Z,55
2022-08-17T08:08:01.121Z,55
2022-08-17T08:09:06.253Z,55
2022-08-17T08:10:11.385Z,55
2022-08-17T08:11:17.495Z,55
2022-08-17T08:12:23.604Z,55
2022-08-17T08:13:29.754Z,55
2022-08-17T08:14:35.840Z,55
2022-08-17T08:15:41.955Z,55
2022-08-17T08:16:48.062Z,55
2022-08-17T08:17:54.178Z,55
2022-08-17T08:19:00.292Z,55
2022-08-17T08:20:06.416Z,55
2022-08-17T08:21:12.516Z,55.5
2022-08-17T08:22:18.643Z,55.5
2022-08-17T08:23:24.773Z,55.5
2022-08-17T08:24:29.881Z,56
2022-08-17T08:25:35.991Z,56
2022-08-17T08:26:42.113Z,56
2022-08-17T08:27:48.215Z,56.5
2022-08-17T08:28:54.331Z,56.5
2022-08-17T08:30:00.457Z,56
2022-08-17T08:31:06.564Z,56.5
2022-08-17T08:32:11.696Z,56.5
2022-08-17T08:33:16.836Z,56.5
2022-08-17T08:34:22.946Z,56.5
2022-08-17T08:35:29.051Z,56.5
2022-08-17T08:36:35.170Z,56.5
2022-08-17T08:37:41.295Z,57
2022-08-17T08:38:47.394Z,56.5
2022-08-17T08:39:53.519Z,56.5
2022-08-17T08:40:59.628Z,57
2022-08-17T08:42:05.751Z,57
2022-08-17T08:43:11.849Z,57
2022-08-17T08:44:17.968Z,57
2022-08-17T08:45:24.077Z,57
2022-08-17T08:46:30.209Z,57
2022-08-17T08:47:35.334Z,57
2022-08-17T08:48:41.441Z,57
2022-08-17T08:49:47.551Z,57
2022-08-17T08:50:53.657Z,57
2022-08-17T08:51:59.780Z,57
2022-08-17T08:53:05.894Z,57
2022-08-17T08:54:12.006Z,57
2022-08-17T08:55:17.141Z,57.5
2022-08-17T08:56:22.274Z,57.5
2022-08-17T08:57:27.443Z,57.5
2022-08-17T08:58:32.539Z,57.5
2022-08-17T08:59:37.695Z,57.5
2022-08-17T09:00:42.800Z,57.5
2022-08-17T09:01:48.916Z,57.5
2022-08-17T09:02:55.031Z,57.5
2022-08-17T09:04:01.147Z,57.5
2022-08-17T09:05:07.260Z,57.5
2022-08-17T09:06:13.381Z,57.5
2022-08-17T09:07:19.492Z,57.5
2022-08-17T09:08:25.605Z,58
2022-08-17T09:09:31.709Z,58
2022-08-17T09:10:37.838Z,58
2022-08-17T09:11:43.947Z,58
2022-08-17T09:12:50.055Z,58
2022-08-17T09:13:56.173Z,58
2022-08-17T09:15:01.299Z,58
2022-08-17T09:16:07.415Z,58
2022-08-17T09:17:13.531Z,58
2022-08-17T09:18:19.643Z,58
2022-08-17T09:19:25.767Z,58.5
2022-08-17T09:20:31.887Z,58.5
2022-08-17T09:21:37.990Z,58.5
2022-08-17T09:22:43.128Z,58.5
2022-08-17T09:23:48.260Z,58.5
2022-08-17T09:24:54.377Z,59
2022-08-17T09:26:00.477Z,59
2022-08-17T09:27:06.605Z,59
2022-08-17T09:28:12.718Z,59
2022-08-17T09:29:18.826Z,59
2022-08-17T09:30:24.930Z,59.5
2022-08-17T09:31:31.058Z,59.5
2022-08-17T09:32:36.191Z,59
2022-08-17T09:33:42.308Z,59
2022-08-17T09:34:48.426Z,59
2022-08-17T09:35:54.535Z,59
2022-08-17T09:37:00.644Z,59
2022-08-17T09:38:06.756Z,59
2022-08-17T09:39:12.883Z,59
2022-08-17T09:40:18.993Z,59
2022-08-17T09:41:25.105Z,59
2022-08-17T09:42:31.216Z,59
2022-08-17T09:43:37.333Z,59
2022-08-17T09:44:43.439Z,59
2022-08-17T09:45:48.583Z,59
2022-08-17T09:46:53.703Z,59
2022-08-17T09:47:59.824Z,59
2022-08-17T09:49:05.943Z,59
2022-08-17T09:50:12.051Z,59
2022-08-17T09:51:18.161Z,59
2022-08-17T09:52:24.286Z,59.5
2022-08-17T09:53:30.402Z,59.5
2022-08-17T09:54:36.506Z,59.5
2022-08-17T09:55:42.623Z,59.5
2022-08-17T09:56:48.724Z,59.5
2022-08-17T09:57:54.833Z,59.5
2022-08-17T09:59:00.949Z,59.5
2022-08-17T10:00:07.089Z,59.5
2022-08-17T10:01:12.201Z,59.5
2022-08-17T10:02:18.314Z,59.5
2022-08-17T10:03:24.428Z,59.5
2022-08-17T10:04:30.544Z,59.5
2022-08-17T10:05:36.647Z,59.5
2022-08-17T10:06:42.837Z,59.5
2022-08-17T10:07:48.879Z,59.5
2022-08-17T10:08:54.025Z,59.5
2022-08-17T10:09:59.152Z,59.5
2022-08-17T10:11:04.288Z,59.5
2022-08-17T10:12:09.419Z,59.5
2022-08-17T10:13:14.561Z,59.5
2022-08-17T10:14:19.684Z,59.5
2022-08-17T10:15:24.819Z,60
2022-08-17T10:16:29.953Z,59.5
2022-08-17T10:17:36.054Z,59.5
2022-08-17T10:18:42.169Z,59.5
2022-08-17T10:19:48.281Z,59.5
2022-08-17T10:20:54.407Z,59.5
2022-08-17T10:22:00.528Z,59.5
2022-08-17T10:23:06.633Z,59.5
2022-08-17T10:24:12.748Z,59.5
2022-08-17T10:25:18.860Z,59.5
2022-08-17T10:26:24.982Z,59.5
2022-08-17T10:27:31.096Z,59.5
2022-08-17T10:28:37.207Z,59.5
2022-08-17T10:29:43.320Z,59.5
2022-08-17T10:30:48.454Z,60
2022-08-17T10:31:54.575Z,60
2022-08-17T10:33:00.750Z,60
2022-08-17T10:35:12.902Z,60.5
2022-08-17T10:36:19.021Z,60.5
2022-08-17T10:37:25.150Z,60.5
2022-08-17T10:38:31.245Z,60.5
2022-08-17T10:39:36.377Z,60.5
2022-08-17T10:40:41.509Z,60
2022-08-17T10:41:47.625Z,60.5
2022-08-17T10:42:52.752Z,60.5
2022-08-17T10:43:57.890Z,60.5
2022-08-17T10:45:03.997Z,60
2022-08-17T10:46:10.110Z,60
2022-08-17T10:47:16.223Z,60
2022-08-17T10:48:22.338Z,60.5
2022-08-17T10:49:28.449Z,60.5
2022-08-17T10:50:34.555Z,61
2022-08-17T10:51:40.676Z,61
2022-08-17T10:52:46.797Z,61
2022-08-17T10:53:52.912Z,61
2022-08-17T10:54:59.038Z,61.5
2022-08-17T10:56:05.143Z,61.5
2022-08-17T10:57:11.259Z,61.5
2022-08-17T10:58:16.383Z,61.5
2022-08-17T10:59:22.503Z,61.5
2022-08-17T11:00:28.608Z,61.5
2022-08-17T11:01:34.735Z,61.5
2022-08-17T11:02:40.854Z,61.5
2022-08-17T11:03:46.944Z,61.5
2022-08-17T11:04:53.070Z,61.5
2022-08-17T11:05:58.203Z,61.5
2022-08-17T11:07:03.333Z,61.5
2022-08-17T11:08:09.443Z,61.5
2022-08-17T11:09:14.591Z,61.5
2022-08-17T11:10:19.717Z,61.5
2022-08-17T11:11:25.838Z,61.5
2022-08-17T11:12:31.945Z,61.5
2022-08-17T11:13:38.056Z,61.5
2022-08-17T11:14:44.174Z,61.5
2022-08-17T11:15:50.293Z,61.5
2022-08-17T11:16:56.404Z,61.5
2022-08-17T11:18:02.516Z,61.5
2022-08-17T11:19:08.625Z,61.5
2022-08-17T11:20:14.742Z,61.5
2022-08-17T11:21:20.850Z,61.5
2022-08-17T11:22:26.969Z,61.5
2022-08-17T11:23:33.084Z,61.5
2022-08-17T11:24:38.212Z,61.5
2022-08-17T11:25:44.323Z,61
2022-08-17T11:26:50.442Z,61
2022-08-17T11:27:56.558Z,61
2022-08-17T11:29:02.660Z,61
2022-08-17T11:30:08.774Z,61
2022-08-17T11:31:14.886Z,61
2022-08-17T11:32:20.019Z,61
2022-08-17T11:33:25.154Z,60.5
2022-08-17T11:34:30.289Z,60.5
2022-08-17T11:35:35.415Z,60.5
2022-08-17T11:36:41.534Z,60.5
2022-08-17T11:37:47.640Z,60.5
2022-08-17T11:38:53.769Z,60.5
2022-08-17T11:39:59.879Z,60.5
2022-08-17T11:41:05.997Z,60.5
2022-08-17T11:42:12.100Z,60.5
2022-08-17T11:43:18.224Z,60.5
2022-08-17T11:44:24.340Z,60.5
2022-08-17T11:45:30.448Z,60.5
2022-08-17T11:46:36.575Z,60.5
2022-08-17T11:47:42.678Z,60
2022-08-17T11:48:48.800Z,60
2022-08-17T11:49:53.916Z,60
2022-08-17T11:51:00.043Z,60
2022-08-17T11:52:06.147Z,60
2022-08-17T11:53:12.291Z,60
2022-08-17T11:54:18.378Z,60
2022-08-17T11:55:24.489Z,60
2022-08-17T11:56:30.616Z,60
2022-08-17T11:57:35.745Z,60
2022-08-17T11:58:40.869Z,60
2022-08-17T11:59:46.980Z,60
2022-08-17T12:00:53.103Z,60
2022-08-17T12:01:59.220Z,60
2022-08-17T12:03:05.330Z,60
2022-08-17T12:04:11.441Z,60
2022-08-17T12:05:17.551Z,60
2022-08-17T12:06:23.667Z,59.5
2022-08-17T12:07:29.788Z,59.5
2022-08-17T12:08:35.894Z,60
2022-08-17T12:09:42.014Z,59.5
2022-08-17T12:10:48.127Z,59.5
2022-08-17T12:11:54.249Z,59.5
2022-08-17T12:12:59.380Z,59.5
2022-08-17T12:14:05.473Z,59.5
2022-08-17T12:15:11.587Z,59.5
2022-08-17T12:16:17.704Z,60
2022-08-17T12:17:23.813Z,60
2022-08-17T12:18:29.925Z,59.5
2022-08-17T12:19:36.038Z,59.5
2022-08-17T12:20:41.186Z,59.5
2022-08-17T12:21:46.307Z,59.5
2022-08-17T12:22:52.425Z,59.5
2022-08-17T12:23:58.532Z,59.5
2022-08-17T12:25:04.653Z,59.5
2022-08-17T12:26:10.760Z,59.5
2022-08-17T12:27:16.884Z,60
2022-08-17T12:28:22.999Z,60
2022-08-17T12:29:29.116Z,60
2022-08-17T12:30:35.232Z,60
2022-08-17T12:31:41.340Z,60
2022-08-17T12:32:47.457Z,60
2022-08-17T12:33:53.574Z,60
2022-08-17T12:34:59.687Z,60
2022-08-17T12:36:04.816Z,60
2022-08-17T12:37:10.924Z,60
2022-08-17T12:38:17.035Z,60
2022-08-17T12:39:23.150Z,60
2022-08-17T12:40:29.259Z,60
2022-08-17T12:41:35.380Z,60
2022-08-17T12:42:41.484Z,60
2022-08-17T12:43:46.628Z,60
2022-08-17T12:44:51.764Z,60
2022-08-17T12:45:56.893Z,60
2022-08-17T12:47:02.033Z,60
2022-08-17T12:48:08.141Z,60
2022-08-17T12:49:14.254Z,60
2022-08-17T12:50:20.371Z,60
2022-08-17T12:51:26.485Z,60
2022-08-17T12:52:32.596Z,60
2022-08-17T12:53:38.720Z,60
2022-08-17T12:54:44.815Z,60
2022-08-17T12:55:50.931Z,60
2022-08-17T12:56:57.058Z,60
2022-08-17T12:58:03.170Z,60
2022-08-17T12:59:09.281Z,60
2022-08-17T13:00:15.405Z,60
2022-08-17T13:01:20.531Z,59.5
2022-08-17T13:02:26.635Z,60
2022-08-17T13:03:32.751Z,60
2022-08-17T13:04:38.851Z,60
2022-08-17T13:05:44.979Z,60
2022-08-17T13:06:51.099Z,60
2022-08-17T13:07:57.206Z,60
2022-08-17T13:09:02.342Z,60
2022-08-17T13:10:07.466Z,60
2022-08-17T13:11:13.573Z,60
2022-08-17T13:12:19.694Z,59.5
2022-08-17T13:13:24.827Z,59.5
2022-08-17T13:14:30.955Z,59.5
2022-08-17T13:15:37.063Z,59.5
2022-08-17T13:16:43.181Z,59.5
2022-08-17T13:17:49.292Z,59.5
2022-08-17T13:18:55.409Z,59.5
2022-08-17T13:20:01.536Z,59.5
2022-08-17T13:21:07.635Z,59.5
2022-08-17T13:22:13.747Z,59.5
2022-08-17T13:23:19.864Z,59.5
2022-08-17T13:25:32.090Z,59.5
2022-08-17T13:26:38.201Z,59.5
2022-08-17T13:27:43.343Z,59.5
2022-08-17T13:28:49.442Z,59.5
2022-08-17T13:29:55.573Z,59.5
2022-08-17T13:31:01.684Z,59.5
2022-08-17T13:32:07.793Z,59.5
2022-08-17T13:33:12.932Z,59.5
2022-08-17T13:34:18.049Z,59.5
2022-08-17T13:35:24.162Z,59.5
2022-08-17T13:36:30.281Z,59.5
2022-08-17T13:37:36.394Z,59.5
2022-08-17T13:38:42.512Z,59.5
2022-08-17T13:39:48.620Z,59.5
2022-08-17T13:40:54.742Z,60
2022-08-17T13:42:00.859Z,60
2022-08-17T13:43:06.974Z,60
2022-08-17T13:44:13.076Z,60
2022-08-17T13:45:19.197Z,60
2022-08-17T13:46:25.313Z,60
2022-08-17T13:47:31.420Z,60
2022-08-17T13:48:36.551Z,59.5
2022-08-17T13:49:42.667Z,60
2022-08-17T13:50:48.787Z,59.5
2022-08-17T13:51:54.898Z,59.5
2022-08-17T13:53:01.022Z,59.5
2022-08-17T13:54:07.125Z,59.5
2022-08-17T13:55:13.242Z,59.5
2022-08-17T13:56:18.371Z,59.5
2022-08-17T13:57:23.507Z,59.5
2022-08-17T13:58:28.625Z,59.5
2022-08-17T13:59:33.765Z,59.5
2022-08-17T14:00:38.924Z,59.5
2022-08-17T14:01:44.031Z,59.5
2022-08-17T14:02:49.174Z,59.5
2022-08-17T14:03:54.318Z,59.5
2022-08-17T14:05:00.408Z,59.5
2022-08-17T14:06:06.534Z,59.5
2022-08-17T14:07:12.638Z,59.5
2022-08-17T14:08:18.757Z,59.5
2022-08-17T14:09:24.878Z,59.5
2022-08-17T14:10:30.984Z,59.5
2022-08-17T14:11:37.093Z,59.5
2022-08-17T14:12:43.214Z,59.5
2022-08-17T14:13:49.320Z,59.5
2022-08-17T14:14:55.449Z,59.5
2022-08-17T14:16:01.554Z,59.5
2022-08-17T14:17:07.666Z,59.5
2022-08-17T14:18:12.802Z,59.5
2022-08-17T14:19:18.918Z,59.5
2022-08-17T14:20:25.022Z,59.5
2022-08-17T14:21:31.137Z,59.5
2022-08-17T14:22:37.247Z,59.5
2022-08-17T14:23:43.367Z,59.5
2022-08-17T14:24:49.491Z,59
2022-08-17T14:25:54.612Z,59
2022-08-17T14:26:59.742Z,59
2022-08-17T14:28:04.891Z,59
2022-08-17T14:29:10.025Z,59
2022-08-17T14:30:16.137Z,59
2022-08-17T14:31:22.242Z,59
2022-08-17T14:32:28.353Z,59.5
2022-08-17T14:33:34.474Z,59.5
2022-08-17T14:35:46.689Z,59
2022-08-17T14:36:52.814Z,59.5
2022-08-17T14:37:58.931Z,59.5
2022-08-17T14:39:05.039Z,59
2022-08-17T14:40:11.163Z,59.5
2022-08-17T14:41:17.264Z,59
2022-08-17T14:42:23.370Z,59.5
2022-08-17T14:43:28.516Z,59.5
2022-08-17T14:44:34.609Z,59.5
2022-08-17T14:45:40.733Z,59
2022-08-17T14:46:46.850Z,59.5
2022-08-17T14:47:52.974Z,59.5
2022-08-17T14:48:59.074Z,59
2022-08-17T14:50:05.215Z,59.5
2022-08-17T14:51:11.299Z,59.5
2022-08-17T14:52:16.447Z,59.5
2022-08-17T14:53:21.587Z,59.5
2022-08-17T14:54:27.686Z,59.5
2022-08-17T14:55:33.809Z,59.5
2022-08-17T14:56:39.918Z,59.5
2022-08-17T14:57:46.036Z,59.5
2022-08-17T14:58:52.148Z,59.5
2022-08-17T14:59:58.253Z,59.5
2022-08-17T15:01:04.379Z,59.5
2022-08-17T15:02:10.481Z,59.5
2022-08-17T15:03:16.590Z,59.5
2022-08-17T15:04:22.723Z,59.5
2022-08-17T15:05:28.824Z,59.5
2022-08-17T15:06:34.949Z,59.5
2022-08-17T15:07:40.074Z,59.5
2022-08-17T15:08:46.189Z,59.5
2022-08-17T15:09:52.289Z,59.5
2022-08-17T15:10:58.417Z,59.5
2022-08-17T15:12:04.525Z,59.5
2022-08-17T15:13:10.642Z,59.5
2022-08-17T15:15:22.863Z,59.5
2022-08-17T15:16:28.003Z,59.5
2022-08-17T15:17:33.134Z,59.5
2022-08-17T15:18:38.267Z,59.5
2022-08-17T15:19:43.395Z,59.5
2022-08-17T15:21:55.632Z,59.5
2022-08-17T15:23:01.742Z,59
2022-08-17T15:24:07.841Z,59
2022-08-17T15:25:13.969Z,59
2022-08-17T15:26:20.084Z,59
2022-08-17T15:27:26.191Z,59
2022-08-17T15:28:32.321Z,59
2022-08-17T15:29:38.414Z,59
2022-08-17T15:30:44.529Z,59
2022-08-17T15:31:50.658Z,59
2022-08-17T15:32:56.756Z,59
2022-08-17T15:34:01.888Z,59
2022-08-17T15:35:08.015Z,59
2022-08-17T15:36:14.121Z,59